Time;durP1;ratioP1;P1;durP2;ratioP2;P2;SDS_P1;SDS_P2;PMS_P1;PMS_P2;Temp;Humidity;BMP_temperature;BMP_pressure;BME280_temperature;BME280_humidity;BME280_pressure;Samples;Min_cycle;Max_cycle;Signal;HPM_P1;HPM_P2
2023/07/12 00:01:26;;;;;;;2.78;1.88;;;;;;;18.76;95.00;100699.56;5028247;28;20879;-73
2023/07/12 00:03:54;;;;;;;4.22;1.88;;;;;;;18.83;95.09;100692.00;5030766;28;20038;-74
2023/07/12 00:06:38;;;;;;;3.75;1.67;;;;;;;18.88;94.20;100694.34;5038672;28;20046;-74
2023/07/12 00:09:13;;;;;;;3.50;1.90;;;;;;;18.92;94.13;100682.50;5030982;28;20606;-74
2023/07/12 00:11:41;;;;;;;3.88;1.88;;;;;;;18.93;93.63;100690.44;5049627;28;20103;-74
2023/07/12 00:14:09;;;;;;;4.90;2.20;;;;;;;18.92;93.76;100688.69;5036379;28;20038;-74
2023/07/12 00:16:39;;;;;;;3.92;2.13;;;;;;;18.91;93.43;100684.31;5027099;28;20046;-74
2023/07/12 00:19:14;;;;;;;5.32;2.30;;;;;;;18.88;93.41;100683.66;5018594;28;20050;-75
2023/07/12 00:21:43;;;;;;;4.60;2.22;;;;;;;18.87;93.79;100676.59;5027236;28;20505;-75
2023/07/12 00:24:10;;;;;;;4.32;2.10;;;;;;;18.91;94.42;100676.28;5016178;28;20042;-75
2023/07/12 00:26:38;;;;;;;2.90;2.15;;;;;;;18.98;93.97;100673.22;5018717;28;20042;-76
2023/07/12 00:29:08;;;;;;;5.55;2.45;;;;;;;19.01;94.23;100678.38;5027399;28;20046;-75
2023/07/12 00:31:38;;;;;;;4.70;2.28;;;;;;;19.01;94.17;100675.69;5027617;28;20549;-76
2023/07/12 00:34:06;;;;;;;8.18;2.38;;;;;;;19.04;94.42;100675.50;5025569;28;20065;-75
2023/07/12 00:36:34;;;;;;;5.60;2.63;;;;;;;19.09;94.70;100674.22;5028329;28;20078;-75
2023/07/12 00:39:05;;;;;;;3.83;2.50;;;;;;;19.10;94.56;100680.41;5027606;28;20138;-75
2023/07/12 00:42:13;;;;;;;4.95;2.67;;;;;;;19.10;94.89;100693.75;5027637;28;20054;-74
2023/07/12 00:44:50;;;;;;;4.63;2.70;;;;;;;19.06;95.08;100702.97;5029174;28;20129;-75
2023/07/12 00:47:19;;;;;;;5.07;2.78;;;;;;;19.04;95.27;100702.22;5042619;28;20046;-76
2023/07/12 00:49:47;;;;;;;3.97;2.67;;;;;;;19.03;95.74;100709.34;5039481;28;20694;-79
2023/07/12 00:52:18;;;;;;;5.22;2.33;;;;;;;19.06;95.93;100714.50;5028310;28;20066;-78
2023/07/12 00:55:01;;;;;;;6.13;3.00;;;;;;;19.17;96.08;100728.94;5026285;28;20057;-76
2023/07/12 00:57:31;;;;;;;6.88;2.72;;;;;;;19.17;95.59;100724.47;5027563;28;20519;-78
2023/07/12 01:00:10;;;;;;;6.55;2.92;;;;;;;19.11;95.52;100724.88;5028651;28;20042;-78
2023/07/12 01:02:45;;;;;;;3.03;2.65;;;;;;;19.04;95.92;100724.41;5029088;28;20089;-77
2023/07/12 01:05:14;;;;;;;5.57;2.90;;;;;;;19.04;96.48;100726.25;5040017;28;20117;-78
2023/07/12 01:07:43;;;;;;;3.80;2.60;;;;;;;19.07;96.44;100729.56;5032784;28;20115;-78
2023/07/12 01:10:10;;;;;;;4.15;2.63;;;;;;;19.12;95.81;100728.41;5027776;28;20042;-79
2023/07/12 01:12:37;;;;;;;4.47;2.45;;;;;;;19.05;95.25;100736.81;5049680;28;20095;-78
2023/07/12 01:15:08;;;;;;;6.85;2.92;;;;;;;19.07;95.79;100750.94;5036415;28;20565;-78
2023/07/12 01:17:36;;;;;;;4.95;2.50;;;;;;;19.05;95.42;100752.00;5028992;28;20034;-77
2023/07/12 01:20:04;;;;;;;4.18;2.58;;;;;;;19.05;95.01;100760.03;5026268;28;20188;-77
2023/07/12 01:22:34;;;;;;;5.75;2.78;;;;;;;18.98;93.41;100762.25;5027120;28;20038;-77
2023/07/12 01:25:04;;;;;;;6.53;2.78;;;;;;;18.92;93.76;100767.97;5028750;28;20038;-78
2023/07/12 01:27:31;;;;;;;6.35;2.70;;;;;;;18.87;93.08;100754.06;5027987;28;20494;-81
2023/07/12 01:29:59;;;;;;;8.50;2.88;;;;;;;18.79;93.27;100773.25;5027893;28;20049;-80
2023/07/12 01:32:28;;;;;;;4.88;2.80;;;;;;;18.73;92.38;100769.16;5026245;28;20136;-79
2023/07/12 01:34:55;;;;;;;4.75;2.63;;;;;;;18.63;90.22;100779.63;5026087;28;20049;-78
2023/07/12 01:37:23;;;;;;;5.00;2.05;;;;;;;18.54;89.63;100790.03;5026481;28;21064;-77
2023/07/12 01:39:53;;;;;;;7.30;2.50;;;;;;;18.40;88.78;100790.91;5024004;28;20066;-78
2023/07/12 01:42:20;;;;;;;5.70;1.92;;;;;;;18.31;87.95;100771.03;5026649;28;20072;-77
2023/07/12 01:44:47;;;;;;;5.53;2.17;;;;;;;18.23;87.68;100766.19;5027237;28;20104;-78
2023/07/12 01:47:14;;;;;;;4.68;1.90;;;;;;;18.18;87.10;100773.59;5043779;28;20053;-76
2023/07/12 01:49:41;;;;;;;4.70;2.13;;;;;;;18.10;87.37;100778.56;5025952;28;20358;-76
2023/07/12 01:52:09;;;;;;;5.35;1.95;;;;;;;18.05;87.07;100764.69;5027108;28;20054;-75
2023/07/12 01:54:36;;;;;;;5.78;1.80;;;;;;;17.99;86.89;100779.25;5030245;28;20160;-74
2023/07/12 01:57:03;;;;;;;7.32;2.10;;;;;;;17.95;87.53;100765.22;5026159;28;20135;-77
2023/07/12 01:59:31;;;;;;;8.15;1.92;;;;;;;17.91;87.71;100731.69;5022262;28;20042;-72
2023/07/12 02:01:58;;;;;;;6.47;1.95;;;;;;;17.89;88.02;100746.94;5024334;28;20045;-73
2023/07/12 02:04:25;;;;;;;5.60;1.80;;;;;;;17.87;88.48;100734.66;5016611;28;20078;-73
2023/07/12 02:06:52;;;;;;;6.70;2.05;;;;;;;17.84;88.37;100720.56;5024610;28;20049;-76
2023/07/12 02:09:19;;;;;;;4.53;1.85;;;;;;;17.84;88.35;100741.03;5033488;28;20131;-73
2023/07/12 02:11:46;;;;;;;8.20;2.22;;;;;;;17.83;89.82;100750.84;5025710;28;20050;-75
2023/07/12 02:14:13;;;;;;;9.30;1.88;;;;;;;17.88;89.96;100769.22;5026878;28;20046;-75
2023/07/12 02:16:41;;;;;;;8.80;1.98;;;;;;;17.97;90.59;100779.34;5024421;28;20042;-75
2023/07/12 02:19:08;;;;;;;8.43;2.30;;;;;;;18.03;90.75;100771.91;5021767;28;20429;-75
2023/07/12 02:21:35;;;;;;;7.35;2.45;;;;;;;18.03;89.89;100772.75;5026879;28;20442;-76
2023/07/12 02:24:02;;;;;;;11.93;2.50;;;;;;;17.98;89.28;100750.88;5025670;28;20038;-77
2023/07/12 02:26:30;;;;;;;8.68;2.05;;;;;;;17.90;89.52;100764.66;5029509;28;20046;-78
2023/07/12 02:28:57;;;;;;;6.63;2.05;;;;;;;17.89;90.01;100767.41;5024779;28;20046;-78
2023/07/12 02:31:24;;;;;;;5.75;2.08;;;;;;;17.86;90.50;100768.44;5026460;28;20576;-76
2023/07/12 02:33:55;;;;;;;9.90;2.83;;;;;;;17.84;91.03;100757.88;5022728;28;20042;-78
2023/07/12 02:36:23;;;;;;;9.88;2.50;;;;;;;17.80;91.34;100751.03;5027259;28;20544;-77
2023/07/12 02:38:50;;;;;;;12.30;3.08;;;;;;;17.79;92.00;100737.78;5025850;28;20494;-77
2023/07/12 02:41:18;;;;;;;11.63;3.03;;;;;;;17.75;92.29;100744.28;5029005;28;20498;-76
2023/07/12 02:43:47;;;;;;;7.25;2.22;;;;;;;17.73;92.41;100781.69;5018457;28;20050;-78
2023/07/12 02:46:15;;;;;;;8.30;2.40;;;;;;;17.63;92.11;100765.41;5019029;28;20637;-78
2023/07/12 02:48:44;;;;;;;9.15;2.78;;;;;;;17.53;92.39;100772.25;5024243;28;20592;-78
2023/07/12 02:51:11;;;;;;;7.93;2.50;;;;;;;17.38;92.49;100774.03;5027612;28;20484;-78
2023/07/12 02:53:38;;;;;;;6.65;2.50;;;;;;;17.30;93.38;100781.59;5035443;28;20073;-76
2023/07/12 02:56:08;;;;;;;9.55;3.15;;;;;;;17.25;93.88;100768.56;5037305;28;20463;-76
2023/07/12 02:58:36;;;;;;;10.15;3.38;;;;;;;17.23;94.78;100759.84;5031223;28;20092;-75
2023/07/12 03:01:05;;;;;;;8.95;3.30;;;;;;;17.18;95.37;100732.59;5024780;28;20046;-74
2023/07/12 03:03:32;;;;;;;9.35;3.10;;;;;;;17.14;95.78;100725.75;5022631;28;20046;-74
2023/07/12 03:06:11;;;;;;;8.32;3.30;;;;;;;17.09;96.38;100731.34;5023874;28;20046;-74
2023/07/12 03:08:39;;;;;;;8.93;3.13;;;;;;;17.10;96.85;100748.19;5025928;28;20050;-73
2023/07/12 03:11:08;;;;;;;7.40;3.30;;;;;;;17.11;97.34;100766.72;5035120;28;20107;-75
2023/07/12 03:13:36;;;;;;;6.80;2.83;;;;;;;17.05;96.92;100757.28;5035423;28;20046;-75
2023/07/12 03:16:06;;;;;;;9.13;3.55;;;;;;;17.03;97.54;100742.34;5036987;28;20045;-74
2023/07/12 03:18:34;;;;;;;7.43;3.40;;;;;;;17.02;97.85;100740.63;5032853;28;20049;-74
2023/07/12 03:21:04;;;;;;;6.20;2.80;;;;;;;17.02;98.37;100735.31;5023814;28;20046;-78
2023/07/12 03:23:33;;;;;;;7.93;3.22;;;;;;;16.96;98.21;100709.06;5037152;28;20641;-77
2023/07/12 03:26:00;;;;;;;7.32;3.30;;;;;;;16.96;98.47;100759.66;5027065;28;20113;-79
2023/07/12 03:28:28;;;;;;;6.55;3.15;;;;;;;16.95;98.73;100772.09;5034826;28;20427;-78
2023/07/12 03:31:01;;;;;;;6.13;2.92;;;;;;;16.95;98.86;100773.91;5024293;28;20427;-80
2023/07/12 03:33:30;;;;;;;6.60;3.20;;;;;;;16.96;99.38;100776.47;5021174;28;20435;-80
2023/07/12 03:35:59;;;;;;;8.77;3.40;;;;;;;17.01;99.58;100785.06;5021528;28;20768;-80
2023/07/12 03:38:29;;;;;;;7.32;3.65;;;;;;;17.01;99.02;100792.19;5023755;28;20494;-80
2023/07/12 03:41:00;;;;;;;7.18;3.40;;;;;;;16.96;98.84;100789.78;5037667;28;20494;-79
2023/07/12 03:43:27;;;;;;;8.13;3.53;;;;;;;16.97;98.99;100788.00;5033969;28;20897;-79
2023/07/12 03:45:55;;;;;;;5.68;3.60;;;;;;;16.94;98.93;100789.00;5024678;28;20034;-78
2023/07/12 03:48:23;;;;;;;6.95;3.60;;;;;;;16.90;99.42;100790.97;5025330;28;20049;-78
2023/07/12 03:50:55;;;;;;;7.28;3.83;;;;;;;16.88;99.37;100782.22;5024280;28;20066;-78
2023/07/12 03:53:25;;;;;;;6.95;3.72;;;;;;;16.96;99.86;100784.47;5033451;28;20077;-78
2023/07/12 03:55:58;;;;;;;9.52;4.22;;;;;;;16.97;99.79;100791.50;5032155;28;20084;-75
2023/07/12 03:58:29;;;;;;;7.28;4.07;;;;;;;16.97;99.60;100809.31;5016204;28;20126;-76
2023/07/12 04:01:01;;;;;;;8.65;4.13;;;;;;;16.95;99.81;100805.84;5036155;28;20053;-76
2023/07/12 04:03:29;;;;;;;7.32;4.15;;;;;;;16.93;99.23;100803.25;5025273;28;20042;-76
2023/07/12 04:05:57;;;;;;;7.05;4.13;;;;;;;16.89;98.99;100807.88;5026046;28;20050;-77
2023/07/12 04:08:24;;;;;;;5.78;4.07;;;;;;;16.91;99.49;100799.81;5027429;28;20122;-76
2023/07/12 04:10:56;;;;;;;7.38;4.57;;;;;;;16.95;99.34;100812.03;5028467;28;20045;-73
2023/07/12 04:13:26;;;;;;;8.98;4.30;;;;;;;16.94;99.05;100809.47;5024155;28;20513;-73
2023/07/12 04:15:56;;;;;;;9.65;4.35;;;;;;;16.97;99.46;100811.97;5022275;28;20485;-75
2023/07/12 04:18:26;;;;;;;7.28;4.13;;;;;;;16.98;99.69;100816.34;5020196;28;20042;-74
2023/07/12 04:20:55;;;;;;;6.78;4.15;;;;;;;17.02;99.82;100823.19;5026632;28;20052;-75
2023/07/12 04:23:22;;;;;;;8.02;3.88;;;;;;;17.02;99.87;100820.53;5028103;28;20049;-74
2023/07/12 04:26:01;;;;;;;11.30;4.10;;;;;;;17.04;99.41;100816.81;5026789;28;20505;-74
2023/07/12 04:28:31;;;;;;;7.72;4.45;;;;;;;17.05;99.23;100831.00;5027886;28;20042;-76
2023/07/12 04:31:07;;;;;;;9.65;4.05;;;;;;;17.05;98.43;100820.34;5027503;28;20119;-73
2023/07/12 04:33:35;;;;;;;5.65;3.85;;;;;;;17.06;97.71;100822.91;5016712;28;20104;-78
2023/07/12 04:36:08;;;;;;;8.73;3.95;;;;;;;17.07;97.36;100821.97;5028401;28;20051;-74
2023/07/12 04:38:36;;;;;;;7.07;4.18;;;;;;;17.08;97.19;100821.03;5028687;28;20537;-75
2023/07/12 04:41:05;;;;;;;5.70;3.67;;;;;;;17.10;96.92;100822.75;5031569;28;20049;-75
2023/07/12 04:43:32;;;;;;;7.00;4.93;;;;;;;17.06;95.97;100822.91;5023498;28;20068;-74
2023/07/12 04:46:00;;;;;;;9.40;5.35;;;;;;;17.06;95.88;100825.59;5022037;28;20059;-75
2023/07/12 04:48:30;;;;;;;11.13;5.90;;;;;;;17.08;95.26;100828.19;5020370;28;20053;-75
2023/07/12 04:50:57;;;;;;;11.30;6.10;;;;;;;17.10;94.92;100834.25;5026995;28;20042;-75
2023/07/12 04:53:24;;;;;;;9.35;6.65;;;;;;;17.14;95.02;100834.97;5040048;28;20158;-74
2023/07/12 04:55:52;;;;;;;10.52;6.38;;;;;;;17.23;95.01;100837.09;5034662;28;20042;-75
2023/07/12 04:58:19;;;;;;;9.30;5.90;;;;;;;17.28;94.03;100840.31;5027134;28;20593;-74
2023/07/12 05:00:47;;;;;;;11.35;5.88;;;;;;;17.27;93.19;100838.59;5029290;28;20049;-74
2023/07/12 05:03:15;;;;;;;9.00;5.68;;;;;;;17.29;93.01;100839.38;5027697;28;20050;-75
2023/07/12 05:05:44;;;;;;;9.65;6.28;;;;;;;17.37;93.17;100845.09;5032869;28;20049;-75
2023/07/12 05:08:12;;;;;;;11.93;5.78;;;;;;;17.45;93.41;100846.47;5027862;28;20038;-76
2023/07/12 05:10:39;;;;;;;9.55;5.45;;;;;;;17.62;93.88;100835.66;5032824;28;20046;-77
2023/07/12 05:13:06;;;;;;;8.98;5.00;;;;;;;17.78;92.05;100840.94;5016626;28;20093;-76
2023/07/12 05:15:33;;;;;;;9.05;4.90;;;;;;;17.90;91.46;100835.81;5037757;28;20042;-76
2023/07/12 05:18:01;;;;;;;8.98;4.80;;;;;;;17.99;90.19;100835.25;5022162;28;20066;-78
2023/07/12 05:20:28;;;;;;;9.70;4.72;;;;;;;18.00;88.07;100843.16;5024603;28;20517;-77
2023/07/12 05:22:55;;;;;;;9.63;4.70;;;;;;;17.92;88.59;100845.41;5025165;28;20457;-77
2023/07/12 05:25:22;;;;;;;9.18;4.88;;;;;;;17.92;89.18;100853.41;5025263;28;20041;-76
2023/07/12 05:27:50;;;;;;;17.80;5.35;;;;;;;17.99;88.31;100860.13;5015849;28;20509;-76
2023/07/12 05:30:17;;;;;;;8.73;4.43;;;;;;;18.66;85.23;100850.63;5022755;28;20077;-76
2023/07/12 05:32:44;;;;;;;10.07;4.25;;;;;;;19.98;80.11;100861.53;5026236;28;20043;-76
2023/07/12 05:35:11;;;;;;;8.48;4.45;;;;;;;21.51;75.28;100871.03;5016606;28;20067;-77
2023/07/12 05:37:39;;;;;;;9.13;3.80;;;;;;;21.76;74.12;100862.97;5027469;28;20070;-76
2023/07/12 05:40:09;;;;;;;7.13;3.30;;;;;;;21.17;74.93;100870.06;5028761;28;20418;-77
2023/07/12 05:42:40;;;;;;;8.73;3.50;;;;;;;21.36;73.17;100869.53;5022858;28;20045;-77
2023/07/12 05:45:12;;;;;;;13.70;3.53;;;;;;;21.53;72.75;100873.59;5016433;28;20053;-75
2023/07/12 05:47:42;;;;;;;9.05;3.38;;;;;;;22.43;68.07;100875.63;5008425;28;20041;-77
2023/07/12 05:50:12;;;;;;;9.00;3.00;;;;;;;24.11;64.13;100873.41;5021559;28;20073;-77
2023/07/12 05:52:40;;;;;;;7.85;3.30;;;;;;;25.39;58.67;100871.84;5016479;28;20084;-75
2023/07/12 05:55:10;;;;;;;10.38;3.00;;;;;;;26.47;56.10;100877.03;5025427;28;20046;-75
2023/07/12 05:57:38;;;;;;;7.95;2.67;;;;;;;27.10;53.08;100883.50;5020812;28;20053;-76
2023/07/12 06:00:08;;;;;;;9.90;3.00;;;;;;;26.76;53.01;100865.19;5026195;28;20038;-76
2023/07/12 06:02:38;;;;;;;8.82;2.70;;;;;;;25.17;56.14;100873.00;5024625;28;20427;-76
2023/07/12 06:05:07;;;;;;;7.05;2.30;;;;;;;23.81;60.52;100869.66;5029545;28;20052;-76
2023/07/12 06:07:34;;;;;;;7.28;2.60;;;;;;;23.52;60.91;100882.91;5026094;28;20057;-76
2023/07/12 06:10:01;;;;;;;5.10;2.22;;;;;;;23.37;62.18;100887.75;5023963;28;20049;-77
2023/07/12 06:12:28;;;;;;;12.50;2.50;;;;;;;22.43;65.11;100891.72;5041216;28;20092;-77
2023/07/12 06:14:55;;;;;;;7.32;2.63;;;;;;;22.00;65.23;100887.91;5028749;28;20045;-76
2023/07/12 06:17:22;;;;;;;10.07;2.78;;;;;;;23.03;65.14;100885.16;5040355;28;21678;-76
2023/07/12 06:19:50;;;;;;;15.00;3.15;;;;;;;23.01;64.68;100884.44;5035391;28;20082;-76
2023/07/12 06:22:17;;;;;;;6.03;2.25;;;;;;;22.34;66.56;100900.47;5029564;28;20526;-76
2023/07/12 06:24:44;;;;;;;6.82;2.42;;;;;;;21.69;66.82;100895.63;5040844;28;20060;-76
2023/07/12 06:27:13;;;;;;;7.22;2.28;;;;;;;21.19;69.93;100908.31;5027650;28;20129;-77
2023/07/12 06:29:45;;;;;;;5.82;2.30;;;;;;;20.83;70.30;100908.25;5026845;28;20128;-76
2023/07/12 06:32:13;;;;;;;8.75;3.08;;;;;;;20.42;72.40;100912.88;5040476;28;20041;-76
2023/07/12 06:34:40;;;;;;;9.00;2.50;;;;;;;20.20;73.65;100918.88;5027304;28;20038;-76
2023/07/12 06:37:08;;;;;;;6.05;2.50;;;;;;;20.24;74.38;100911.50;5041272;28;20049;-75
2023/07/12 06:39:36;;;;;;;5.15;2.20;;;;;;;20.23;73.23;100921.38;5037469;28;20045;-75
2023/07/12 06:42:04;;;;;;;7.07;2.97;;;;;;;19.95;73.20;100923.25;5038181;28;20048;-76
2023/07/12 06:44:33;;;;;;;7.10;2.10;;;;;;;19.78;73.98;100921.72;5023095;28;20085;-73
2023/07/12 06:47:01;;;;;;;6.47;2.38;;;;;;;19.70;74.81;100927.59;5026944;28;20049;-76
2023/07/12 06:49:28;;;;;;;6.57;2.20;;;;;;;19.72;74.72;100935.50;5030059;28;20093;-78
2023/07/12 06:51:57;;;;;;;10.63;2.60;;;;;;;19.61;74.84;100944.25;5036415;28;20513;-78
2023/07/12 06:54:24;;;;;;;6.70;2.40;;;;;;;19.79;74.64;100933.28;5031102;28;20049;-77
2023/07/12 06:56:51;;;;;;;7.57;2.20;;;;;;;19.93;74.08;100946.59;5042090;28;20461;-75
2023/07/12 06:59:18;;;;;;;9.07;2.45;;;;;;;20.01;75.02;100946.94;5028142;28;20121;-75
2023/07/12 07:01:47;;;;;;;9.50;2.58;;;;;;;19.98;74.48;100947.13;5035018;28;20136;-74
2023/07/12 07:04:14;;;;;;;11.10;2.65;;;;;;;19.92;74.83;100949.38;5030300;28;20041;-73
2023/07/12 07:06:42;;;;;;;8.85;2.47;;;;;;;19.86;75.53;100939.94;5027394;28;20041;-74
2023/07/12 07:09:10;;;;;;;11.25;2.70;;;;;;;19.75;75.56;100948.66;5038995;28;20581;-75
2023/07/12 07:11:38;;;;;;;12.90;2.65;;;;;;;19.67;74.80;100959.03;5036510;28;20133;-74
2023/07/12 07:14:05;;;;;;;7.43;2.38;;;;;;;19.59;75.28;100955.97;5033709;28;20447;-74
2023/07/12 07:16:33;;;;;;;11.95;2.53;;;;;;;19.45;74.92;100954.22;5025545;28;20046;-74
2023/07/12 07:19:00;;;;;;;10.45;2.75;;;;;;;19.43;75.47;100959.69;5008772;28;20120;-75
2023/07/12 07:21:28;;;;;;;8.98;2.92;;;;;;;19.49;75.99;100966.44;5027817;28;20133;-75
2023/07/12 07:23:55;;;;;;;14.02;3.35;;;;;;;19.66;75.55;100966.19;5027450;28;20038;-74
2023/07/12 07:26:23;;;;;;;8.25;2.25;;;;;;;19.69;75.35;100965.97;5041255;28;20577;-75
2023/07/12 07:28:50;;;;;;;7.63;2.55;;;;;;;19.58;74.83;100963.16;5028301;28;20042;-74
2023/07/12 07:31:17;;;;;;;9.63;3.05;;;;;;;19.48;75.37;100981.66;5042132;28;20045;-74
2023/07/12 07:33:47;;;;;;;15.45;2.88;;;;;;;19.44;76.51;100981.91;5033530;28;20584;-74
2023/07/12 07:36:15;;;;;;;10.90;2.88;;;;;;;19.41;76.70;100988.34;5038909;28;20144;-74
2023/07/12 07:38:42;;;;;;;6.93;2.47;;;;;;;19.42;76.56;100978.50;5029784;28;20046;-74
2023/07/12 07:41:14;;;;;;;6.05;2.55;;;;;;;19.46;75.90;100986.22;5034665;28;20486;-75
2023/07/12 07:43:44;;;;;;;8.20;2.80;;;;;;;19.49;75.83;100979.81;5039029;28;20053;-74
2023/07/12 07:46:14;;;;;;;8.98;2.85;;;;;;;19.57;75.67;100998.88;5028516;28;20073;-74
2023/07/12 07:48:41;;;;;;;12.15;2.72;;;;;;;19.55;75.33;100990.97;5035105;28;20503;-75
2023/07/12 07:51:10;;;;;;;7.60;2.83;;;;;;;19.57;75.15;100988.19;5036739;28;20046;-73
2023/07/12 07:53:37;;;;;;;8.15;2.33;;;;;;;19.71;74.29;100985.47;5032224;28;20041;-74
2023/07/12 07:56:05;;;;;;;10.63;2.65;;;;;;;20.02;74.37;100991.47;5029437;28;20096;-74
2023/07/12 07:58:33;;;;;;;6.80;2.42;;;;;;;20.22;71.99;100991.91;5027652;28;20049;-74
2023/07/12 08:01:00;;;;;;;8.85;2.70;;;;;;;20.44;72.31;100993.09;5025697;28;20186;-72
2023/07/12 08:03:30;;;;;;;6.90;2.20;;;;;;;20.73;71.68;100993.72;5032938;28;20037;-75
2023/07/12 08:06:04;;;;;;;7.90;2.30;;;;;;;20.82;71.29;101002.97;5037519;28;20074;-74
2023/07/12 08:08:34;;;;;;;13.38;2.47;;;;;;;20.78;70.06;100996.97;5028786;28;20052;-73
2023/07/12 08:11:06;;;;;;;7.03;2.42;;;;;;;20.72;70.42;101004.56;5033934;28;20486;-74
2023/07/12 08:13:35;;;;;;;7.97;2.20;;;;;;;20.64;70.73;101010.44;5038546;28;20414;-73
2023/07/12 08:16:02;;;;;;;7.97;2.28;;;;;;;20.62;70.47;101005.19;5040747;28;20044;-73
2023/07/12 08:18:29;;;;;;;9.80;2.60;;;;;;;20.66;70.36;101013.00;5031545;28;20121;-73
2023/07/12 08:20:57;;;;;;;6.97;2.35;;;;;;;20.64;70.11;101019.34;5044421;28;20061;-74
2023/07/12 08:23:24;;;;;;;8.95;2.47;;;;;;;20.58;69.57;101014.41;5035566;28;20152;-73
2023/07/12 08:25:53;;;;;;;14.20;2.50;;;;;;;20.59;70.81;101013.44;5037573;28;20097;-74
2023/07/12 08:28:20;;;;;;;8.10;2.40;;;;;;;20.68;69.45;101019.09;5027416;28;20046;-73
2023/07/12 08:30:48;;;;;;;12.85;2.70;;;;;;;20.73;70.14;101020.50;5021716;28;20057;-73
2023/07/12 08:33:16;;;;;;;10.07;2.92;;;;;;;20.90;69.27;101019.34;5025179;28;20521;-74
2023/07/12 08:35:43;;;;;;;7.90;2.47;;;;;;;21.11;68.33;101010.72;5024060;28;20042;-72
2023/07/12 08:38:18;;;;;;;9.88;2.50;;;;;;;21.30;67.69;101007.56;5025580;28;20068;-72
2023/07/12 08:40:50;;;;;;;11.68;2.20;;;;;;;21.40;68.31;101019.34;5026796;28;20533;-73
2023/07/12 08:43:30;;;;;;;8.38;2.58;;;;;;;21.39;67.05;101017.63;5019884;28;20101;-72
2023/07/12 08:46:11;;;;;;;7.88;2.30;;;;;;;21.34;67.86;101017.09;5021296;28;20101;-72
2023/07/12 08:48:39;;;;;;;8.23;2.42;;;;;;;21.41;67.47;101023.75;5044630;28;20104;-74
2023/07/12 08:51:16;;;;;;;8.38;2.40;;;;;;;21.50;68.07;101019.50;5030676;28;20049;-73
2023/07/12 08:53:45;;;;;;;11.38;2.38;;;;;;;21.54;66.59;101025.50;5037573;28;20045;-72
2023/07/12 08:56:15;;;;;;;5.38;2.08;;;;;;;21.51;64.69;101025.75;5033328;28;20454;-73
2023/07/12 08:58:47;;;;;;;11.07;2.00;;;;;;;21.43;65.48;101023.63;5043135;28;20044;-73
2023/07/12 09:01:41;;;;;;;8.27;2.20;;;;;;;21.55;66.49;101021.84;5033374;28;20068;-73
2023/07/12 09:04:31;;;;;;;8.57;2.22;;;;;;;21.72;66.78;101026.00;5034982;28;20053;-73
2023/07/12 09:07:07;;;;;;;10.30;2.40;;;;;;;21.92;66.02;101029.88;5057605;28;20132;-74
2023/07/12 09:09:39;;;;;;;10.95;2.50;;;;;;;22.00;65.15;101037.31;5038686;28;20076;-74
2023/07/12 09:12:34;;;;;;;8.05;2.10;;;;;;;21.84;64.56;101037.63;5035430;28;20943;-72
2023/07/12 09:15:10;;;;;;;18.27;3.15;;;;;;;21.70;65.26;101035.97;5022960;28;20088;-73
2023/07/12 09:17:44;;;;;;;8.98;2.10;;;;;;;21.71;65.77;101029.63;5030713;28;20099;-74
2023/07/12 09:20:29;;;;;;;15.85;2.85;;;;;;;22.07;64.33;101032.34;5031662;28;20615;-73
2023/07/12 09:22:59;;;;;;;14.07;2.80;;;;;;;22.26;62.77;101023.75;5026212;28;20049;-74
2023/07/12 09:25:38;;;;;;;6.30;2.42;;;;;;;22.15;61.52;101036.16;5031705;28;20057;-74
2023/07/12 09:28:11;;;;;;;7.88;2.20;;;;;;;22.08;62.19;101026.00;5026434;28;20047;-73
2023/07/12 09:30:38;;;;;;;7.80;2.50;;;;;;;22.18;62.08;101019.81;5028016;28;20050;-74
2023/07/12 09:33:13;;;;;;;9.77;2.70;;;;;;;22.21;62.66;101026.78;5037473;28;20052;-74
2023/07/12 09:35:47;;;;;;;8.70;2.20;;;;;;;22.44;62.45;101016.09;5037052;28;20037;-74
2023/07/12 09:38:21;;;;;;;6.70;2.17;;;;;;;22.58;61.15;101015.91;5024573;28;20046;-73
2023/07/12 09:40:51;;;;;;;17.35;2.88;;;;;;;22.62;61.31;101016.50;5028794;28;20045;-75
2023/07/12 09:43:27;;;;;;;8.82;2.75;;;;;;;22.52;61.32;101016.38;5034898;28;20042;-74
2023/07/12 09:46:57;;;;;;;13.10;2.38;;;;;;;22.67;59.71;101014.31;5021664;28;20374;-73
2023/07/12 09:49:47;;;;;;;9.50;2.50;;;;;;;22.84;61.17;101020.19;5004974;28;20057;-73
2023/07/12 09:52:27;;;;;;;9.98;2.80;;;;;;;23.04;60.48;101027.50;5024069;28;20577;-75
2023/07/12 09:55:20;;;;;;;8.27;2.13;;;;;;;23.13;57.97;101015.16;5028452;28;20123;-74
2023/07/12 09:58:19;;;;;;;13.93;2.17;;;;;;;23.27;56.93;101016.75;5018504;28;20046;-74
2023/07/12 10:01:22;;;;;;;15.15;2.58;;;;;;;23.44;56.63;101011.81;5027590;28;20091;-72
2023/07/12 10:03:56;;;;;;;8.43;2.58;;;;;;;23.56;56.75;101011.66;5012179;28;20149;-75
2023/07/12 10:06:39;;;;;;;8.10;2.30;;;;;;;23.61;57.00;101008.59;5027154;28;20061;-74
2023/07/12 10:09:29;;;;;;;6.07;2.10;;;;;;;23.67;56.39;101021.53;5025941;28;20103;-75
2023/07/12 10:12:05;;;;;;;23.05;3.63;;;;;;;23.78;54.84;101019.78;5038606;28;20482;-74
2023/07/12 10:14:39;;;;;;;14.65;2.45;;;;;;;23.83;55.41;101020.25;5028579;28;20054;-74
2023/07/12 10:17:18;;;;;;;10.63;2.13;;;;;;;23.98;55.74;101013.63;5026132;28;20426;-74
2023/07/12 10:19:53;;;;;;;6.78;2.03;;;;;;;23.98;53.73;101016.31;5027813;28;20045;-74
2023/07/12 10:22:33;;;;;;;9.20;2.08;;;;;;;24.12;53.26;101012.44;5028576;28;20128;-73
2023/07/12 10:25:17;;;;;;;9.95;2.20;;;;;;;24.09;52.84;101012.69;5016153;28;20153;-74
2023/07/12 10:27:55;;;;;;;14.60;2.45;;;;;;;24.08;50.80;101010.97;5028538;28;20049;-74
2023/07/12 10:30:26;;;;;;;4.63;2.15;;;;;;;23.92;52.60;101008.69;5025053;28;20042;-73
2023/07/12 10:33:15;;;;;;;11.38;2.28;;;;;;;24.10;53.21;101016.25;5026312;28;20061;-73
2023/07/12 10:36:16;;;;;;;4.85;2.10;;;;;;;24.30;52.70;101018.09;5035864;28;20041;-73
2023/07/12 10:38:43;;;;;;;6.28;2.10;;;;;;;24.44;51.50;101016.91;5008535;28;20058;-73
2023/07/12 10:41:39;;;;;;;5.53;2.20;;;;;;;24.68;50.40;101020.28;5035789;28;20180;-74
2023/07/12 10:44:16;;;;;;;10.55;2.65;;;;;;;24.90;49.77;101012.03;5033988;28;20041;-74
2023/07/12 10:46:50;;;;;;;7.57;2.33;;;;;;;24.94;49.61;101012.63;5028505;28;20038;-74
2023/07/12 10:49:57;;;;;;;6.55;2.17;;;;;;;25.17;49.62;101021.34;5033973;28;20517;-74
2023/07/12 10:52:33;;;;;;;6.28;2.10;;;;;;;25.25;48.79;101026.91;5024925;28;20042;-74
2023/07/12 10:55:03;;;;;;;8.05;1.55;;;;;;;25.24;49.87;101022.50;5023371;28;20584;-74
2023/07/12 10:57:44;;;;;;;11.48;1.80;;;;;;;25.30;50.04;101029.19;5030933;28;20517;-75
2023/07/12 11:00:25;;;;;;;6.22;1.70;;;;;;;25.44;48.27;101006.38;5026942;28;20041;-76
2023/07/12 11:03:18;;;;;;;7.82;2.00;;;;;;;25.34;47.45;101027.06;5027242;28;20144;-76
2023/07/12 11:06:03;;;;;;;3.67;1.60;;;;;;;24.93;48.08;101022.53;5018107;28;20050;-75
2023/07/12 11:08:30;;;;;;;5.43;1.80;;;;;;;24.69;49.91;101030.94;5039257;28;20045;-76
2023/07/12 11:11:20;;;;;;;8.02;2.08;;;;;;;24.63;49.75;101026.91;5033881;28;20657;-75
2023/07/12 11:14:11;;;;;;;4.63;1.63;;;;;;;24.65;50.70;101024.94;5025312;28;20080;-74
2023/07/12 11:17:04;;;;;;;4.13;1.30;;;;;;;24.64;49.40;101023.22;5039623;28;20053;-75
2023/07/12 11:19:40;;;;;;;10.95;1.90;;;;;;;24.85;49.34;101019.66;5024159;28;20522;-73
2023/07/12 11:22:17;;;;;;;8.00;1.55;;;;;;;25.00;48.10;101017.44;5043916;28;20458;-75
2023/07/12 11:24:44;;;;;;;6.85;1.77;;;;;;;25.01;48.52;101007.53;5035651;28;20119;-75
2023/07/12 11:27:55;;;;;;;8.05;1.88;;;;;;;25.17;47.83;101015.09;5050135;28;20596;-76
2023/07/12 11:30:35;;;;;;;7.65;1.65;;;;;;;24.92;47.12;101012.75;5033423;28;20066;-76
2023/07/12 11:33:30;;;;;;;21.75;2.88;;;;;;;24.89;48.59;101010.34;5017293;28;20046;-76
2023/07/12 11:36:08;;;;;;;14.95;1.80;;;;;;;25.16;48.21;101011.53;5031815;28;20046;-76
2023/07/12 11:38:43;;;;;;;5.57;1.50;;;;;;;25.34;47.57;101013.56;5040965;28;20037;-76
2023/07/12 11:41:26;;;;;;;7.60;1.77;;;;;;;25.38;47.42;101007.78;5031292;28;20056;-74
2023/07/12 11:44:14;;;;;;;13.07;2.20;;;;;;;25.45;46.59;101015.34;5030545;28;20816;-74
2023/07/12 11:46:42;;;;;;;6.35;1.88;;;;;;;25.62;46.73;101011.09;5031621;28;20069;-75